sensor_id;sensor_type;location;lat;lon;timestamp;P1;durP1;ratioP1;P2;durP2;ratioP2
36925;SDS011;22842;48.610;11.612;2022-10-18T03:02:59;7.75;;;4.40;;
36925;SDS011;22842;48.610;11.612;2022-10-18T03:05:27;14.55;;;4.60;;
36925;SDS011;22842;48.610;11.612;2022-10-18T03:07:55;14.20;;;5.15;;
36925;SDS011;22842;48.610;11.612;2022-10-18T03:10:23;10.88;;;5.03;;
36925;SDS011;22842;48.610;11.612;2022-10-18T03:12:50;19.17;;;5.00;;
36925;SDS011;22842;48.610;11.612;2022-10-18T03:15:18;14.13;;;4.75;;
36925;SDS011;22842;48.610;11.612;2022-10-18T03:17:45;11.23;;;4.78;;
36925;SDS011;22842;48.610;11.612;2022-10-18T03:20:13;12.25;;;5.15;;
36925;SDS011;22842;48.610;11.612;2022-10-18T03:22:40;11.32;;;5.38;;
36925;SDS011;22842;48.610;11.612;2022-10-18T03:25:07;12.60;;;5.68;;
36925;SDS011;22842;48.610;11.612;2022-10-18T03:27:35;17.55;;;6.03;;
36925;SDS011;22842;48.610;11.612;2022-10-18T03:30:03;19.13;;;5.80;;
36925;SDS011;22842;48.610;11.612;2022-10-18T03:32:31;9.02;;;5.75;;
36925;SDS011;22842;48.610;11.612;2022-10-18T03:34:58;27.15;;;7.30;;
36925;SDS011;22842;48.610;11.612;2022-10-18T03:37:26;16.33;;;6.05;;
36925;SDS011;22842;48.610;11.612;2022-10-18T03:39:54;16.73;;;6.75;;
36925;SDS011;22842;48.610;11.612;2022-10-18T03:42:22;18.75;;;6.28;;
36925;SDS011;22842;48.610;11.612;2022-10-18T03:44:49;20.77;;;7.80;;
36925;SDS011;22842;48.610;11.612;2022-10-18T03:47:17;16.25;;;6.78;;
36925;SDS011;22842;48.610;11.612;2022-10-18T03:49:44;30.58;;;7.20;;
36925;SDS011;22842;48.610;11.612;2022-10-18T03:52:11;15.40;;;8.07;;
36925;SDS011;22842;48.610;11.612;2022-10-18T03:54:39;30.58;;;8.30;;
36925;SDS011;22842;48.610;11.612;2022-10-18T03:57:07;37.72;;;8.48;;
36925;SDS011;22842;48.610;11.612;2022-10-18T03:59:35;62.58;;;8.85;;
36925;SDS011;22842;48.610;11.612;2022-10-18T04:02:03;87.15;;;9.60;;
36925;SDS011;22842;48.610;11.612;2022-10-18T04:04:31;51.25;;;8.02;;
36925;SDS011;22842;48.610;11.612;2022-10-18T04:06:58;35.67;;;7.90;;
36925;SDS011;22842;48.610;11.612;2022-10-18T04:09:25;81.82;;;8.10;;
36925;SDS011;22842;48.610;11.612;2022-10-18T04:11:53;50.63;;;6.78;;
36925;SDS011;22842;48.610;11.612;2022-10-18T04:14:20;23.70;;;5.63;;
36925;SDS011;22842;48.610;11.612;2022-10-18T04:16:48;15.00;;;5.90;;
36925;SDS011;22842;48.610;11.612;2022-10-18T04:19:15;19.60;;;5.75;;
36925;SDS011;22842;48.610;11.612;2022-10-18T04:21:43;18.83;;;5.43;;
36925;SDS011;22842;48.610;11.612;2022-10-18T04:24:10;10.77;;;5.30;;
36925;SDS011;22842;48.610;11.612;2022-10-18T04:26:38;8.50;;;4.65;;
36925;SDS011;22842;48.610;11.612;2022-10-18T04:29:06;11.13;;;5.68;;
36925;SDS011;22842;48.610;11.612;2022-10-18T04:31:33;8.10;;;4.80;;
36925;SDS011;22842;48.610;11.612;2022-10-18T04:34:00;8.98;;;4.75;;
36925;SDS011;22842;48.610;11.612;2022-10-18T04:36:30;9.95;;;5.45;;
36925;SDS011;22842;48.610;11.612;2022-10-18T04:38:57;8.88;;;4.93;;
36925;SDS011;22842;48.610;11.612;2022-10-18T04:41:25;8.10;;;5.25;;
36925;SDS011;22842;48.610;11.612;2022-10-18T04:43:52;11.90;;;4.85;;
36925;SDS011;22842;48.610;11.612;2022-10-18T04:46:20;7.68;;;4.50;;
36925;SDS011;22842;48.610;11.612;2022-10-18T04:48:47;7.25;;;4.38;;
36925;SDS011;22842;48.610;11.612;2022-10-18T04:51:15;9.32;;;5.57;;
36925;SDS011;22842;48.610;11.612;2022-10-18T04:53:43;8.27;;;4.97;;
36925;SDS011;22842;48.610;11.612;2022-10-18T04:56:10;11.20;;;5.47;;
36925;SDS011;22842;48.610;11.612;2022-10-18T04:58:37;9.55;;;4.78;;
36925;SDS011;22842;48.610;11.612;2022-10-18T05:01:05;12.32;;;5.03;;
36925;SDS011;22842;48.610;11.612;2022-10-18T05:03:33;8.57;;;5.15;;
36925;SDS011;22842;48.610;11.612;2022-10-18T05:06:01;12.60;;;5.30;;
36925;SDS011;22842;48.610;11.612;2022-10-18T05:08:29;10.93;;;4.80;;
36925;SDS011;22842;48.610;11.612;2022-10-18T05:10:56;9.30;;;5.07;;
36925;SDS011;22842;48.610;11.612;2022-10-18T05:13:24;13.32;;;5.78;;
36925;SDS011;22842;48.610;11.612;2022-10-18T05:15:51;12.93;;;5.55;;
36925;SDS011;22842;48.610;11.612;2022-10-18T05:18:19;11.95;;;5.40;;
36925;SDS011;22842;48.610;11.612;2022-10-18T05:20:46;14.30;;;5.80;;
36925;SDS011;22842;48.610;11.612;2022-10-18T05:23:14;9.98;;;5.45;;
36925;SDS011;22842;48.610;11.612;2022-10-18T05:25:42;12.52;;;5.28;;
36925;SDS011;22842;48.610;11.612;2022-10-18T05:28:10;9.50;;;5.05;;
36925;SDS011;22842;48.610;11.612;2022-10-18T05:31:00;8.57;;;4.65;;
36925;SDS011;22842;48.610;11.612;2022-10-18T05:33:28;10.18;;;4.75;;
36925;SDS011;22842;48.610;11.612;2022-10-18T05:35:55;12.25;;;5.20;;
36925;SDS011;22842;48.610;11.612;2022-10-18T05:38:23;18.60;;;5.53;;
36925;SDS011;22842;48.610;11.612;2022-10-18T05:40:50;10.85;;;5.18;;
36925;SDS011;22842;48.610;11.612;2022-10-18T05:43:18;17.02;;;5.38;;
36925;SDS011;22842;48.610;11.612;2022-10-18T05:45:46;14.88;;;6.30;;
36925;SDS011;22842;48.610;11.612;2022-10-18T05:48:14;14.77;;;6.47;;
36925;SDS011;22842;48.610;11.612;2022-10-18T05:50:42;12.60;;;6.35;;
36925;SDS011;22842;48.610;11.612;2022-10-18T05:53:09;13.07;;;5.78;;
36925;SDS011;22842;48.610;11.612;2022-10-18T05:56:00;10.40;;;5.60;;
36925;SDS011;22842;48.610;11.612;2022-10-18T05:58:28;11.95;;;5.57;;
36925;SDS011;22842;48.610;11.612;2022-10-18T06:00:59;20.25;;;6.43;;
36925;SDS011;22842;48.610;11.612;2022-10-18T06:03:27;13.50;;;6.25;;
36925;SDS011;22842;48.610;11.612;2022-10-18T06:06:03;32.42;;;6.35;;
36925;SDS011;22842;48.610;11.612;2022-10-18T06:08:31;16.83;;;7.93;;
36925;SDS011;22842;48.610;11.612;2022-10-18T06:11:04;13.32;;;6.07;;
36925;SDS011;22842;48.610;11.612;2022-10-18T06:13:31;12.43;;;6.07;;
36925;SDS011;22842;48.610;11.612;2022-10-18T06:15:59;11.73;;;6.07;;
36925;SDS011;22842;48.610;11.612;2022-10-18T06:18:26;13.77;;;6.18;;
36925;SDS011;22842;48.610;11.612;2022-10-18T06:20:56;12.63;;;5.85;;
36925;SDS011;22842;48.610;11.612;2022-10-18T06:23:24;13.80;;;5.88;;
36925;SDS011;22842;48.610;11.612;2022-10-18T06:25:51;12.35;;;5.88;;
36925;SDS011;22842;48.610;11.612;2022-10-18T06:28:19;10.20;;;6.22;;
36925;SDS011;22842;48.610;11.612;2022-10-18T06:30:46;8.77;;;5.75;;
36925;SDS011;22842;48.610;11.612;2022-10-18T06:33:14;10.48;;;5.28;;
36925;SDS011;22842;48.610;11.612;2022-10-18T06:35:41;13.52;;;6.22;;
36925;SDS011;22842;48.610;11.612;2022-10-18T06:38:09;13.05;;;6.82;;
36925;SDS011;22842;48.610;11.612;2022-10-18T06:40:36;16.33;;;6.47;;
36925;SDS011;22842;48.610;11.612;2022-10-18T06:43:04;12.13;;;5.90;;
36925;SDS011;22842;48.610;11.612;2022-10-18T06:45:46;15.32;;;6.30;;
36925;SDS011;22842;48.610;11.612;2022-10-18T06:48:14;16.33;;;6.35;;
36925;SDS011;22842;48.610;11.612;2022-10-18T06:50:41;12.70;;;5.57;;
36925;SDS011;22842;48.610;11.612;2022-10-18T06:53:09;11.82;;;5.30;;
36925;SDS011;22842;48.610;11.612;2022-10-18T06:55:36;15.70;;;5.95;;
36925;SDS011;22842;48.610;11.612;2022-10-18T06:58:04;12.00;;;6.22;;
36925;SDS011;22842;48.610;11.612;2022-10-18T07:00:32;14.48;;;5.90;;
36925;SDS011;22842;48.610;11.612;2022-10-18T07:02:59;14.75;;;6.53;;
36925;SDS011;22842;48.610;11.612;2022-10-18T07:05:27;15.15;;;6.55;;
36925;SDS011;22842;48.610;11.612;2022-10-18T07:07:55;15.02;;;6.45;;
36925;SDS011;22842;48.610;11.612;2022-10-18T07:10:23;16.20;;;7.00;;
36925;SDS011;22842;48.610;11.612;2022-10-18T07:12:51;10.63;;;6.28;;
36925;SDS011;22842;48.610;11.612;2022-10-18T07:15:33;12.30;;;6.13;;
36925;SDS011;22842;48.610;11.612;2022-10-18T07:18:04;18.48;;;6.53;;
36925;SDS011;22842;48.610;11.612;2022-10-18T07:20:31;14.65;;;6.72;;
36925;SDS011;22842;48.610;11.612;2022-10-18T07:22:59;10.63;;;5.80;;
36925;SDS011;22842;48.610;11.612;2022-10-18T07:25:26;10.57;;;5.88;;
36925;SDS011;22842;48.610;11.612;2022-10-18T07:27:55;17.27;;;6.63;;
36925;SDS011;22842;48.610;11.612;2022-10-18T07:30:23;10.65;;;6.45;;
36925;SDS011;22842;48.610;11.612;2022-10-18T07:32:50;16.08;;;6.60;;
36925;SDS011;22842;48.610;11.612;2022-10-18T07:35:18;13.95;;;6.40;;
36925;SDS011;22842;48.610;11.612;2022-10-18T07:37:46;13.75;;;7.55;;
36925;SDS011;22842;48.610;11.612;2022-10-18T07:40:13;9.77;;;6.00;;
36925;SDS011;22842;48.610;11.612;2022-10-18T07:42:41;17.17;;;6.20;;
36925;SDS011;22842;48.610;11.612;2022-10-18T07:45:09;13.27;;;6.72;;
36925;SDS011;22842;48.610;11.612;2022-10-18T07:47:38;15.60;;;6.53;;
36925;SDS011;22842;48.610;11.612;2022-10-18T07:50:06;10.98;;;6.18;;
36925;SDS011;22842;48.610;11.612;2022-10-18T07:52:34;13.68;;;6.70;;
36925;SDS011;22842;48.610;11.612;2022-10-18T07:55:01;13.85;;;6.88;;
36925;SDS011;22842;48.610;11.612;2022-10-18T07:57:29;12.10;;;5.65;;
36925;SDS011;22842;48.610;11.612;2022-10-18T07:59:57;10.07;;;6.35;;
36925;SDS011;22842;48.610;11.612;2022-10-18T08:02:25;12.38;;;6.40;;
36925;SDS011;22842;48.610;11.612;2022-10-18T08:04:52;15.00;;;6.38;;
36925;SDS011;22842;48.610;11.612;2022-10-18T08:07:20;15.20;;;6.25;;
36925;SDS011;22842;48.610;11.612;2022-10-18T08:09:48;11.35;;;6.35;;
36925;SDS011;22842;48.610;11.612;2022-10-18T08:12:15;16.15;;;6.55;;
36925;SDS011;22842;48.610;11.612;2022-10-18T08:14:43;11.48;;;6.00;;
36925;SDS011;22842;48.610;11.612;2022-10-18T08:17:10;17.92;;;6.82;;
36925;SDS011;22842;48.610;11.612;2022-10-18T08:19:38;13.95;;;6.45;;
36925;SDS011;22842;48.610;11.612;2022-10-18T08:22:26;18.40;;;7.40;;
36925;SDS011;22842;48.610;11.612;2022-10-18T08:24:53;17.63;;;6.93;;
36925;SDS011;22842;48.610;11.612;2022-10-18T08:27:21;16.67;;;7.80;;
36925;SDS011;22842;48.610;11.612;2022-10-18T08:29:51;13.27;;;7.07;;
36925;SDS011;22842;48.610;11.612;2022-10-18T08:32:18;15.57;;;7.18;;
36925;SDS011;22842;48.610;11.612;2022-10-18T08:34:46;12.40;;;7.25;;
36925;SDS011;22842;48.610;11.612;2022-10-18T08:37:14;11.05;;;7.00;;
36925;SDS011;22842;48.610;11.612;2022-10-18T08:39:42;19.45;;;8.07;;
36925;SDS011;22842;48.610;11.612;2022-10-18T08:44:56;18.85;;;7.85;;
36925;SDS011;22842;48.610;11.612;2022-10-18T08:47:43;13.30;;;7.38;;
36925;SDS011;22842;48.610;11.612;2022-10-18T08:50:16;15.10;;;7.13;;
36925;SDS011;22842;48.610;11.612;2022-10-18T08:57:45;13.75;;;7.70;;
36925;SDS011;22842;48.610;11.612;2022-10-18T09:00:14;13.68;;;7.30;;
36925;SDS011;22842;48.610;11.612;2022-10-18T09:10:54;12.00;;;5.97;;
36925;SDS011;22842;48.610;11.612;2022-10-18T09:16:12;14.30;;;5.88;;
36925;SDS011;22842;48.610;11.612;2022-10-18T09:18:46;11.82;;;6.18;;
36925;SDS011;22842;48.610;11.612;2022-10-18T09:26:29;12.57;;;6.25;;
36925;SDS011;22842;48.610;11.612;2022-10-18T09:31:39;12.15;;;6.13;;
36925;SDS011;22842;48.610;11.612;2022-10-18T09:36:57;14.55;;;6.32;;
36925;SDS011;22842;48.610;11.612;2022-10-18T09:39:27;20.50;;;6.95;;
36925;SDS011;22842;48.610;11.612;2022-10-18T09:42:01;15.02;;;6.45;;
36925;SDS011;22842;48.610;11.612;2022-10-18T09:47:09;10.02;;;6.28;;
36925;SDS011;22842;48.610;11.612;2022-10-18T09:52:37;11.77;;;6.53;;
36925;SDS011;22842;48.610;11.612;2022-10-18T09:55:13;8.40;;;6.70;;
36925;SDS011;22842;48.610;11.612;2022-10-18T09:57:44;10.18;;;7.00;;
36925;SDS011;22842;48.610;11.612;2022-10-18T10:00:23;10.95;;;6.30;;
36925;SDS011;22842;48.610;11.612;2022-10-18T10:02:52;13.52;;;6.80;;
36925;SDS011;22842;48.610;11.612;2022-10-18T10:05:20;15.38;;;7.45;;
36925;SDS011;22842;48.610;11.612;2022-10-18T10:07:47;14.45;;;6.63;;
36925;SDS011;22842;48.610;11.612;2022-10-18T10:12:42;15.07;;;7.22;;
36925;SDS011;22842;48.610;11.612;2022-10-18T10:15:24;11.88;;;6.63;;
36925;SDS011;22842;48.610;11.612;2022-10-18T10:18:01;13.13;;;6.15;;
36925;SDS011;22842;48.610;11.612;2022-10-18T10:23:08;10.63;;;6.88;;
36925;SDS011;22842;48.610;11.612;2022-10-18T10:25:40;11.57;;;5.60;;
36925;SDS011;22842;48.610;11.612;2022-10-18T10:28:13;8.27;;;5.00;;
36925;SDS011;22842;48.610;11.612;2022-10-18T10:30:41;11.90;;;5.78;;
36925;SDS011;22842;48.610;11.612;2022-10-18T10:35:58;11.38;;;5.72;;
36925;SDS011;22842;48.610;11.612;2022-10-18T10:38:26;9.40;;;6.10;;
36925;SDS011;22842;48.610;11.612;2022-10-18T10:40:54;8.15;;;5.65;;
36925;SDS011;22842;48.610;11.612;2022-10-18T10:46:10;7.38;;;5.18;;
36925;SDS011;22842;48.610;11.612;2022-10-18T10:48:53;13.18;;;5.13;;
36925;SDS011;22842;48.610;11.612;2022-10-18T10:51:41;12.45;;;5.45;;
36925;SDS011;22842;48.610;11.612;2022-10-18T10:54:20;10.10;;;4.60;;
36925;SDS011;22842;48.610;11.612;2022-10-18T10:56:59;11.75;;;4.80;;
36925;SDS011;22842;48.610;11.612;2022-10-18T10:59:29;11.60;;;4.68;;
36925;SDS011;22842;48.610;11.612;2022-10-18T11:04:45;8.57;;;4.53;;
36925;SDS011;22842;48.610;11.612;2022-10-18T11:10:02;8.10;;;4.53;;
36925;SDS011;22842;48.610;11.612;2022-10-18T11:12:42;13.73;;;5.63;;
36925;SDS011;22842;48.610;11.612;2022-10-18T11:15:21;8.20;;;4.32;;
36925;SDS011;22842;48.610;11.612;2022-10-18T11:25:23;13.23;;;4.07;;
36925;SDS011;22842;48.610;11.612;2022-10-18T11:30:25;10.65;;;4.15;;
36925;SDS011;22842;48.610;11.612;2022-10-18T11:33:00;6.05;;;3.70;;
36925;SDS011;22842;48.610;11.612;2022-10-18T11:58:57;9.30;;;4.05;;
36925;SDS011;22842;48.610;11.612;2022-10-18T12:06:35;9.38;;;4.30;;
36925;SDS011;22842;48.610;11.612;2022-10-18T12:09:08;5.82;;;3.67;;
36925;SDS011;22842;48.610;11.612;2022-10-18T12:11:40;9.52;;;3.50;;
36925;SDS011;22842;48.610;11.612;2022-10-18T12:14:16;12.57;;;4.10;;
36925;SDS011;22842;48.610;11.612;2022-10-18T12:16:48;8.38;;;3.70;;
36925;SDS011;22842;48.610;11.612;2022-10-18T12:19:37;6.30;;;3.53;;
36925;SDS011;22842;48.610;11.612;2022-10-18T12:22:09;17.63;;;4.00;;
36925;SDS011;22842;48.610;11.612;2022-10-18T12:24:40;6.70;;;4.03;;
36925;SDS011;22842;48.610;11.612;2022-10-18T12:27:10;8.45;;;3.78;;
36925;SDS011;22842;48.610;11.612;2022-10-18T12:29:49;9.07;;;3.97;;
36925;SDS011;22842;48.610;11.612;2022-10-18T12:32:21;10.45;;;3.88;;
36925;SDS011;22842;48.610;11.612;2022-10-18T12:34:53;17.30;;;3.72;;
36925;SDS011;22842;48.610;11.612;2022-10-18T12:42:41;5.43;;;3.20;;
36925;SDS011;22842;48.610;11.612;2022-10-18T12:47:39;8.02;;;3.28;;
36925;SDS011;22842;48.610;11.612;2022-10-18T12:53:03;7.20;;;4.15;;
36925;SDS011;22842;48.610;11.612;2022-10-18T12:55:35;6.78;;;3.50;;
36925;SDS011;22842;48.610;11.612;2022-10-18T13:13:33;10.50;;;4.47;;
36925;SDS011;22842;48.610;11.612;2022-10-18T13:16:13;10.45;;;4.35;;
36925;SDS011;22842;48.610;11.612;2022-10-18T13:18:54;11.05;;;4.70;;
36925;SDS011;22842;48.610;11.612;2022-10-18T13:26:42;10.82;;;4.40;;
36925;SDS011;22842;48.610;11.612;2022-10-18T13:29:45;7.22;;;3.63;;
36925;SDS011;22842;48.610;11.612;2022-10-18T13:32:25;8.00;;;3.72;;
36925;SDS011;22842;48.610;11.612;2022-10-18T13:34:55;10.43;;;4.60;;
36925;SDS011;22842;48.610;11.612;2022-10-18T13:37:23;9.68;;;4.32;;
36925;SDS011;22842;48.610;11.612;2022-10-18T13:40:12;9.93;;;4.32;;
36925;SDS011;22842;48.610;11.612;2022-10-18T13:42:39;20.17;;;4.53;;
36925;SDS011;22842;48.610;11.612;2022-10-18T13:47:52;13.55;;;3.88;;
36925;SDS011;22842;48.610;11.612;2022-10-18T13:50:29;10.60;;;4.30;;
36925;SDS011;22842;48.610;11.612;2022-10-18T13:53:10;7.10;;;3.97;;
36925;SDS011;22842;48.610;11.612;2022-10-18T14:06:32;14.75;;;4.25;;
36925;SDS011;22842;48.610;11.612;2022-10-18T14:09:04;15.00;;;4.60;;
36925;SDS011;22842;48.610;11.612;2022-10-18T14:11:54;8.13;;;3.78;;
36925;SDS011;22842;48.610;11.612;2022-10-18T14:19:35;7.75;;;4.03;;
36925;SDS011;22842;48.610;11.612;2022-10-18T14:22:19;8.10;;;3.53;;
36925;SDS011;22842;48.610;11.612;2022-10-18T14:24:48;10.20;;;4.25;;
36925;SDS011;22842;48.610;11.612;2022-10-18T14:27:20;8.57;;;3.42;;
36925;SDS011;22842;48.610;11.612;2022-10-18T14:29:48;10.32;;;3.80;;
36925;SDS011;22842;48.610;11.612;2022-10-18T14:32:21;6.03;;;3.83;;
36925;SDS011;22842;48.610;11.612;2022-10-18T14:34:50;11.00;;;4.50;;
36925;SDS011;22842;48.610;11.612;2022-10-18T14:37:33;12.87;;;4.47;;
36925;SDS011;22842;48.610;11.612;2022-10-18T14:40:02;11.48;;;3.97;;
36925;SDS011;22842;48.610;11.612;2022-10-18T14:42:30;10.95;;;4.22;;
36925;SDS011;22842;48.610;11.612;2022-10-18T14:44:57;16.35;;;4.35;;
36925;SDS011;22842;48.610;11.612;2022-10-18T14:47:26;9.88;;;3.90;;
36925;SDS011;22842;48.610;11.612;2022-10-18T14:49:54;10.48;;;3.70;;
36925;SDS011;22842;48.610;11.612;2022-10-18T14:52:25;8.75;;;4.22;;
36925;SDS011;22842;48.610;11.612;2022-10-18T14:54:59;8.52;;;3.92;;
36925;SDS011;22842;48.610;11.612;2022-10-18T14:57:32;10.48;;;3.75;;
36925;SDS011;22842;48.610;11.612;2022-10-18T15:00:06;11.43;;;4.30;;
36925;SDS011;22842;48.610;11.612;2022-10-18T15:02:35;10.25;;;4.07;;
36925;SDS011;22842;48.610;11.612;2022-10-18T15:05:07;7.22;;;3.40;;
36925;SDS011;22842;48.610;11.612;2022-10-18T15:07:35;15.57;;;4.57;;
36925;SDS011;22842;48.610;11.612;2022-10-18T15:10:03;11.48;;;3.88;;
36925;SDS011;22842;48.610;11.612;2022-10-18T15:12:31;12.43;;;4.60;;
36925;SDS011;22842;48.610;11.612;2022-10-18T15:15:19;10.00;;;3.88;;
36925;SDS011;22842;48.610;11.612;2022-10-18T15:17:47;13.70;;;4.38;;
36925;SDS011;22842;48.610;11.612;2022-10-18T15:22:51;6.28;;;3.75;;
36925;SDS011;22842;48.610;11.612;2022-10-18T15:27:56;6.28;;;3.47;;
36925;SDS011;22842;48.610;11.612;2022-10-18T15:30:25;6.65;;;3.65;;
36925;SDS011;22842;48.610;11.612;2022-10-18T15:32:54;9.57;;;3.90;;
36925;SDS011;22842;48.610;11.612;2022-10-18T15:35:43;13.35;;;3.83;;
36925;SDS011;22842;48.610;11.612;2022-10-18T15:38:14;9.90;;;4.25;;
36925;SDS011;22842;48.610;11.612;2022-10-18T15:40:41;13.88;;;3.70;;
36925;SDS011;22842;48.610;11.612;2022-10-18T15:45:50;6.90;;;3.30;;
36925;SDS011;22842;48.610;11.612;2022-10-18T15:48:22;10.40;;;4.50;;
36925;SDS011;22842;48.610;11.612;2022-10-18T15:50:52;11.15;;;4.30;;
36925;SDS011;22842;48.610;11.612;2022-10-18T16:00:59;7.25;;;4.65;;
36925;SDS011;22842;48.610;11.612;2022-10-18T16:03:28;10.02;;;3.72;;
36925;SDS011;22842;48.610;11.612;2022-10-18T16:06:02;8.95;;;3.63;;
36925;SDS011;22842;48.610;11.612;2022-10-18T16:08:30;7.22;;;3.63;;
36925;SDS011;22842;48.610;11.612;2022-10-18T16:11:02;5.97;;;3.10;;
36925;SDS011;22842;48.610;11.612;2022-10-18T16:13:30;5.70;;;3.60;;
36925;SDS011;22842;48.610;11.612;2022-10-18T16:15:57;4.13;;;3.10;;
36925;SDS011;22842;48.610;11.612;2022-10-18T16:18:25;13.02;;;3.78;;
36925;SDS011;22842;48.610;11.612;2022-10-18T16:20:53;6.05;;;3.22;;
36925;SDS011;22842;48.610;11.612;2022-10-18T16:23:23;5.82;;;3.40;;
36925;SDS011;22842;48.610;11.612;2022-10-18T16:25:51;6.03;;;3.05;;
36925;SDS011;22842;48.610;11.612;2022-10-18T16:28:20;10.35;;;3.20;;
36925;SDS011;22842;48.610;11.612;2022-10-18T16:30:58;11.07;;;5.57;;
36925;SDS011;22842;48.610;11.612;2022-10-18T16:33:26;13.77;;;8.07;;
36925;SDS011;22842;48.610;11.612;2022-10-18T16:35:54;28.25;;;18.27;;
36925;SDS011;22842;48.610;11.612;2022-10-18T16:38:26;18.73;;;12.02;;
36925;SDS011;22842;48.610;11.612;2022-10-18T16:41:01;25.85;;;11.43;;
36925;SDS011;22842;48.610;11.612;2022-10-18T16:43:28;16.92;;;6.53;;
36925;SDS011;22842;48.610;11.612;2022-10-18T16:45:56;7.75;;;3.92;;
36925;SDS011;22842;48.610;11.612;2022-10-18T16:48:24;8.27;;;3.10;;
36925;SDS011;22842;48.610;11.612;2022-10-18T16:50:52;13.63;;;3.17;;
36925;SDS011;22842;48.610;11.612;2022-10-18T16:53:20;7.43;;;3.00;;
36925;SDS011;22842;48.610;11.612;2022-10-18T16:55:52;4.85;;;2.83;;
36925;SDS011;22842;48.610;11.612;2022-10-18T16:58:21;5.43;;;2.67;;
36925;SDS011;22842;48.610;11.612;2022-10-18T17:00:53;7.68;;;2.85;;
36925;SDS011;22842;48.610;11.612;2022-10-18T17:03:21;5.05;;;3.05;;
36925;SDS011;22842;48.610;11.612;2022-10-18T17:05:49;9.70;;;3.05;;
36925;SDS011;22842;48.610;11.612;2022-10-18T17:08:22;8.50;;;3.15;;
36925;SDS011;22842;48.610;11.612;2022-10-18T17:10:51;7.82;;;2.85;;
36925;SDS011;22842;48.610;11.612;2022-10-18T17:13:19;3.03;;;2.25;;
36925;SDS011;22842;48.610;11.612;2022-10-18T17:15:48;3.50;;;2.55;;
36925;SDS011;22842;48.610;11.612;2022-10-18T17:18:18;6.88;;;2.78;;
36925;SDS011;22842;48.610;11.612;2022-10-18T17:20:47;8.00;;;2.92;;
36925;SDS011;22842;48.610;11.612;2022-10-18T17:23:15;13.27;;;3.60;;
36925;SDS011;22842;48.610;11.612;2022-10-18T17:25:42;9.95;;;3.65;;
36925;SDS011;22842;48.610;11.612;2022-10-18T17:28:30;11.63;;;3.35;;
36925;SDS011;22842;48.610;11.612;2022-10-18T17:30:58;7.82;;;3.15;;
36925;SDS011;22842;48.610;11.612;2022-10-18T17:33:27;5.43;;;2.90;;
36925;SDS011;22842;48.610;11.612;2022-10-18T17:35:55;5.55;;;2.83;;
36925;SDS011;22842;48.610;11.612;2022-10-18T17:38:23;8.90;;;3.03;;
36925;SDS011;22842;48.610;11.612;2022-10-18T17:40:50;3.42;;;2.67;;
36925;SDS011;22842;48.610;11.612;2022-10-18T17:43:18;7.32;;;3.03;;
36925;SDS011;22842;48.610;11.612;2022-10-18T17:45:52;7.07;;;3.05;;
36925;SDS011;22842;48.610;11.612;2022-10-18T17:48:20;8.98;;;3.50;;
36925;SDS011;22842;48.610;11.612;2022-10-18T17:50:47;6.15;;;3.53;;
36925;SDS011;22842;48.610;11.612;2022-10-18T17:53:15;7.75;;;3.22;;
36925;SDS011;22842;48.610;11.612;2022-10-18T17:55:47;6.55;;;3.00;;
36925;SDS011;22842;48.610;11.612;2022-10-18T17:58:15;13.07;;;3.70;;
36925;SDS011;22842;48.610;11.612;2022-10-18T18:00:42;6.38;;;3.75;;
36925;SDS011;22842;48.610;11.612;2022-10-18T18:03:10;17.30;;;5.20;;
36925;SDS011;22842;48.610;11.612;2022-10-18T18:05:38;10.90;;;4.32;;
36925;SDS011;22842;48.610;11.612;2022-10-18T18:08:06;13.35;;;4.10;;
36925;SDS011;22842;48.610;11.612;2022-10-18T18:10:33;10.23;;;3.63;;
36925;SDS011;22842;48.610;11.612;2022-10-18T18:13:01;5.78;;;3.60;;
36925;SDS011;22842;48.610;11.612;2022-10-18T18:15:28;14.30;;;3.97;;
36925;SDS011;22842;48.610;11.612;2022-10-18T18:17:56;9.95;;;3.50;;
36925;SDS011;22842;48.610;11.612;2022-10-18T18:20:24;13.55;;;4.03;;
36925;SDS011;22842;48.610;11.612;2022-10-18T18:22:52;10.02;;;4.47;;
36925;SDS011;22842;48.610;11.612;2022-10-18T18:25:20;6.97;;;4.50;;
36925;SDS011;22842;48.610;11.612;2022-10-18T18:27:47;7.20;;;4.53;;
36925;SDS011;22842;48.610;11.612;2022-10-18T18:30:15;10.75;;;4.30;;
36925;SDS011;22842;48.610;11.612;2022-10-18T18:32:43;9.85;;;3.65;;
36925;SDS011;22842;48.610;11.612;2022-10-18T18:35:10;10.48;;;4.68;;
36925;SDS011;22842;48.610;11.612;2022-10-18T18:37:38;5.47;;;4.53;;
36925;SDS011;22842;48.610;11.612;2022-10-18T18:40:05;10.85;;;6.00;;
36925;SDS011;22842;48.610;11.612;2022-10-18T18:42:33;6.93;;;4.90;;
36925;SDS011;22842;48.610;11.612;2022-10-18T18:45:01;16.67;;;9.77;;
36925;SDS011;22842;48.610;11.612;2022-10-18T18:47:28;18.48;;;12.40;;
36925;SDS011;22842;48.610;11.612;2022-10-18T18:50:00;11.05;;;8.15;;
36925;SDS011;22842;48.610;11.612;2022-10-18T18:52:28;12.15;;;5.85;;
36925;SDS011;22842;48.610;11.612;2022-10-18T18:54:56;7.03;;;4.78;;
36925;SDS011;22842;48.610;11.612;2022-10-18T18:57:23;7.40;;;4.40;;
36925;SDS011;22842;48.610;11.612;2022-10-18T18:59:50;10.77;;;4.80;;
36925;SDS011;22842;48.610;11.612;2022-10-18T19:02:18;9.55;;;4.90;;
36925;SDS011;22842;48.610;11.612;2022-10-18T19:04:46;5.88;;;4.03;;
36925;SDS011;22842;48.610;11.612;2022-10-18T19:07:14;10.50;;;4.05;;
36925;SDS011;22842;48.610;11.612;2022-10-18T19:09:42;8.70;;;4.28;;
36925;SDS011;22842;48.610;11.612;2022-10-18T19:12:10;15.23;;;4.47;;
36925;SDS011;22842;48.610;11.612;2022-10-18T19:14:39;9.40;;;4.70;;
36925;SDS011;22842;48.610;11.612;2022-10-18T19:17:07;6.45;;;4.85;;
36925;SDS011;22842;48.610;11.612;2022-10-18T19:19:34;11.30;;;5.43;;
36925;SDS011;22842;48.610;11.612;2022-10-18T19:22:05;8.70;;;4.95;;
36925;SDS011;22842;48.610;11.612;2022-10-18T19:24:35;6.63;;;4.80;;
36925;SDS011;22842;48.610;11.612;2022-10-18T19:27:04;9.07;;;5.70;;
36925;SDS011;22842;48.610;11.612;2022-10-18T19:29:36;9.32;;;5.28;;
36925;SDS011;22842;48.610;11.612;2022-10-18T19:32:07;10.23;;;5.38;;
36925;SDS011;22842;48.610;11.612;2022-10-18T19:34:37;11.77;;;5.87;;
36925;SDS011;22842;48.610;11.612;2022-10-18T19:37:05;8.43;;;5.65;;
36925;SDS011;22842;48.610;11.612;2022-10-18T19:39:35;8.45;;;5.20;;
36925;SDS011;22842;48.610;11.612;2022-10-18T19:42:04;12.63;;;6.28;;
36925;SDS011;22842;48.610;11.612;2022-10-18T19:44:33;9.57;;;6.55;;
36925;SDS011;22842;48.610;11.612;2022-10-18T19:47:05;8.63;;;7.03;;
36925;SDS011;22842;48.610;11.612;2022-10-18T19:49:33;11.32;;;7.40;;
36925;SDS011;22842;48.610;11.612;2022-10-18T19:52:00;12.68;;;7.32;;
36925;SDS011;22842;48.610;11.612;2022-10-18T19:54:28;13.02;;;7.60;;
36925;SDS011;22842;48.610;11.612;2022-10-18T19:56:55;13.65;;;7.22;;
36925;SDS011;22842;48.610;11.612;2022-10-18T19:59:22;11.98;;;7.35;;
36925;SDS011;22842;48.610;11.612;2022-10-18T20:01:50;16.70;;;6.93;;
36925;SDS011;22842;48.610;11.612;2022-10-18T20:04:18;13.07;;;6.88;;
36925;SDS011;22842;48.610;11.612;2022-10-18T20:06:45;12.75;;;6.55;;
36925;SDS011;22842;48.610;11.612;2022-10-18T20:09:13;11.48;;;6.22;;
36925;SDS011;22842;48.610;11.612;2022-10-18T20:11:46;12.48;;;6.45;;
36925;SDS011;22842;48.610;11.612;2022-10-18T20:14:13;16.13;;;6.13;;
36925;SDS011;22842;48.610;11.612;2022-10-18T20:16:41;12.95;;;5.80;;
36925;SDS011;22842;48.610;11.612;2022-10-18T20:19:08;13.88;;;5.63;;